Time;durP1;ratioP1;P1;durP2;ratioP2;P2;SDS_P1;SDS_P2;PMS_P1;PMS_P2;Temp;Humidity;BMP_temperature;BMP_pressure;BME280_temperature;BME280_humidity;BME280_pressure;Samples;Min_cycle;Max_cycle;Signal;HPM_P1;HPM_P2
2022/07/26 04:27:54;;;;;;;11.78;10.30;;;;;;;;;;1771697;80;21499;-77
2022/07/26 04:30:21;;;;;;;13.98;10.38;;;;;;;;;;1762462;80;21490;-77
2022/07/26 04:32:48;;;;;;;14.10;9.93;;;;;;;;;;1760322;80;21008;-78
2022/07/26 04:35:15;;;;;;;13.55;9.73;;;;;;;;;;1760020;80;21149;-81
2022/07/26 04:37:43;;;;;;;17.67;10.30;;;;;;;;;;1764694;80;21050;-80
2022/07/26 04:40:13;;;;;;;13.35;10.00;;;;;;;;;;1767660;80;21098;-79
2022/07/26 04:42:41;;;;;;;11.88;9.95;;;;;;;;;;1769980;80;21044;-81
2022/07/26 04:45:09;;;;;;;10.72;9.63;;;;;;;;;;1774827;80;21062;-77
2022/07/26 04:47:36;;;;;;;12.75;9.70;;;;;;;;;;1771318;80;21030;-78
2022/07/26 04:50:04;;;;;;;11.48;9.68;;;;;;;;;;1760499;79;21047;-79
2022/07/26 04:52:31;;;;;;;12.68;10.20;;;;;;;;;;1761467;80;21082;-78
2022/07/26 04:54:58;;;;;;;12.98;10.28;;;;;;;;;;1771062;80;20972;-82
2022/07/26 04:57:24;;;;;;;10.78;9.70;;;;;;;;;;1768287;80;21004;-82
2022/07/26 04:59:53;;;;;;;11.18;10.03;;;;;;;;;;1769183;80;21055;-79
2022/07/26 05:02:20;;;;;;;12.15;9.35;;;;;;;;;;1754109;80;21112;-79
2022/07/26 05:04:47;;;;;;;14.75;9.60;;;;;;;;;;1770809;80;21022;-81
2022/07/26 05:07:14;;;;;;;16.77;9.98;;;;;;;;;;1778167;80;21000;-79
2022/07/26 05:09:41;;;;;;;11.85;9.73;;;;;;;;;;1765773;80;21563;-78
2022/07/26 05:12:09;;;;;;;13.30;9.83;;;;;;;;;;1774874;80;21007;-77
2022/07/26 05:14:38;;;;;;;11.03;9.68;;;;;;;;;;1756607;80;20983;-83
2022/07/26 05:17:05;;;;;;;10.68;9.43;;;;;;;;;;1771704;80;21012;-80
2022/07/26 05:19:32;;;;;;;11.08;9.43;;;;;;;;;;1766500;80;21015;-81
2022/07/26 05:21:59;;;;;;;13.72;9.85;;;;;;;;;;1755814;80;21016;-79
2022/07/26 05:24:25;;;;;;;12.37;9.70;;;;;;;;;;1766712;80;21041;-81
2022/07/26 05:26:52;;;;;;;11.73;9.50;;;;;;;;;;1726685;82;21558;-80
2022/07/26 05:29:19;;;;;;;12.58;9.25;;;;;;;;;;1716584;81;21029;-81
2022/07/26 05:31:46;;;;;;;15.78;9.55;;;;;;;;;;1719528;81;21516;-78
2022/07/26 05:34:14;;;;;;;14.13;9.63;;;;;;;;;;1773736;80;21017;-83
2022/07/26 05:36:40;;;;;;;13.40;8.98;;;;;;;;;;1769293;80;21015;-81
2022/07/26 05:39:07;;;;;;;11.43;9.18;;;;;;;;;;1773494;80;21469;-82
2022/07/26 05:41:34;;;;;;;12.18;9.13;;;;;;;;;;1758790;80;21015;-81
2022/07/26 05:44:02;;;;;;;12.85;8.83;;;;;;;;;;1770019;80;21520;-79
2022/07/26 05:46:28;;;;;;;11.43;8.93;;;;;;;;;;1771554;80;20973;-79
2022/07/26 05:48:55;;;;;;;10.25;9.00;;;;;;;;;;1748304;80;21022;-82
2022/07/26 05:51:22;;;;;;;14.80;9.00;;;;;;;;;;1753014;80;21008;-80
2022/07/26 05:53:48;;;;;;;10.65;9.20;;;;;;;;;;1763181;80;21500;-84
2022/07/26 05:56:15;;;;;;;10.68;8.33;;;;;;;;;;1760204;80;21176;-79
2022/07/26 05:58:42;;;;;;;12.90;9.38;;;;;;;;;;1759598;80;21038;-83
2022/07/26 06:01:10;;;;;;;11.75;9.10;;;;;;;;;;1756090;80;21052;-80
2022/07/26 06:03:36;;;;;;;10.70;8.85;;;;;;;;;;1738382;80;21039;-81
2022/07/26 06:06:03;;;;;;;10.80;8.70;;;;;;;;;;1754761;81;21036;-80
2022/07/26 06:08:30;;;;;;;13.35;9.38;;;;;;;;;;1757179;80;21027;-83
2022/07/26 06:10:57;;;;;;;9.55;8.50;;;;;;;;;;1719023;82;21031;-85
2022/07/26 06:13:24;;;;;;;9.88;8.88;;;;;;;;;;1730825;82;21039;-82
2022/07/26 06:15:51;;;;;;;12.18;8.80;;;;;;;;;;1702106;82;21174;-81
2022/07/26 06:18:18;;;;;;;11.18;8.73;;;;;;;;;;1698919;83;21071;-82
2022/07/26 06:20:46;;;;;;;11.78;8.95;;;;;;;;;;1692274;83;21075;-84
2022/07/26 06:23:13;;;;;;;15.58;9.13;;;;;;;;;;1706602;82;21097;-82
2022/07/26 06:25:39;;;;;;;11.05;8.20;;;;;;;;;;1688456;82;21034;-81
2022/07/26 06:28:08;;;;;;;12.05;8.85;;;;;;;;;;1701657;83;21053;-80
2022/07/26 06:30:36;;;;;;;9.68;8.05;;;;;;;;;;1690220;84;21067;-79
2022/07/26 06:33:03;;;;;;;9.70;8.08;;;;;;;;;;1696975;83;21587;-81
2022/07/26 06:35:30;;;;;;;8.60;7.70;;;;;;;;;;1708837;83;21500;-80
2022/07/26 06:37:58;;;;;;;13.22;8.30;;;;;;;;;;1679641;82;21080;-78
2022/07/26 06:40:25;;;;;;;8.60;7.58;;;;;;;;;;1705512;82;21586;-83
2022/07/26 06:42:52;;;;;;;8.60;7.70;;;;;;;;;;1704221;82;21123;-78
2022/07/26 06:45:21;;;;;;;9.50;8.25;;;;;;;;;;1697340;83;21180;-81
2022/07/26 06:47:47;;;;;;;13.22;8.58;;;;;;;;;;1705737;83;21100;-81
2022/07/26 06:50:14;;;;;;;10.13;7.87;;;;;;;;;;1710388;83;21104;-81
2022/07/26 06:52:41;;;;;;;11.65;7.85;;;;;;;;;;1705388;83;21049;-80
2022/07/26 06:55:09;;;;;;;8.80;7.90;;;;;;;;;;1704249;83;21004;-83
2022/07/26 06:57:36;;;;;;;8.48;7.58;;;;;;;;;;1697073;83;21126;-82
2022/07/26 07:00:04;;;;;;;9.68;7.97;;;;;;;;;;1691714;83;21057;-81
2022/07/26 07:02:32;;;;;;;9.08;7.83;;;;;;;;;;1768650;80;21032;-82
2022/07/26 07:04:58;;;;;;;11.40;7.90;;;;;;;;;;1770577;80;21044;-81
2022/07/26 07:07:25;;;;;;;9.78;7.72;;;;;;;;;;1763529;80;21493;-80
2022/07/26 07:09:52;;;;;;;8.90;7.60;;;;;;;;;;1769175;80;20999;-81
2022/07/26 07:12:20;;;;;;;8.63;7.30;;;;;;;;;;1770987;80;21047;-83
2022/07/26 07:14:47;;;;;;;11.78;8.30;;;;;;;;;;1770792;80;21048;-83
2022/07/26 07:17:17;;;;;;;8.20;7.35;;;;;;;;;;1772254;81;21091;-83
2022/07/26 07:19:44;;;;;;;10.40;7.50;;;;;;;;;;1767399;80;21001;-82
2022/07/26 07:22:13;;;;;;;8.90;7.85;;;;;;;;;;1770372;80;21042;-82
2022/07/26 07:24:41;;;;;;;8.75;7.95;;;;;;;;;;1768805;80;21111;-83
2022/07/26 07:27:09;;;;;;;10.63;7.70;;;;;;;;;;1760295;80;21106;-83
2022/07/26 07:29:36;;;;;;;9.95;7.72;;;;;;;;;;1759858;80;21020;-80
2022/07/26 07:32:04;;;;;;;8.45;7.35;;;;;;;;;;1754029;80;21032;-81
2022/07/26 07:34:32;;;;;;;8.90;7.47;;;;;;;;;;1762050;80;21071;-81
2022/07/26 07:37:00;;;;;;;10.43;8.13;;;;;;;;;;1753688;81;21614;-82
2022/07/26 07:39:28;;;;;;;9.80;7.70;;;;;;;;;;1763138;81;21071;-81
2022/07/26 07:41:54;;;;;;;9.18;8.23;;;;;;;;;;1755716;80;21023;-81
2022/07/26 07:44:21;;;;;;;10.65;7.75;;;;;;;;;;1759031;81;21016;-80
2022/07/26 07:46:48;;;;;;;12.43;8.33;;;;;;;;;;1756829;81;21071;-80
2022/07/26 07:49:15;;;;;;;8.80;7.90;;;;;;;;;;1763746;81;21024;-81
2022/07/26 07:51:42;;;;;;;11.12;7.67;;;;;;;;;;1762017;81;21083;-83
2022/07/26 07:54:09;;;;;;;10.50;8.13;;;;;;;;;;1771131;80;21496;-82
2022/07/26 07:56:36;;;;;;;9.58;7.00;;;;;;;;;;1762975;81;21023;-82
2022/07/26 07:59:04;;;;;;;9.03;8.13;;;;;;;;;;1764258;80;21028;-80
2022/07/26 08:01:31;;;;;;;9.08;6.80;;;;;;;;;;1755092;81;21052;-79
2022/07/26 08:03:58;;;;;;;9.00;6.87;;;;;;;;;;1749601;81;21483;-84
2022/07/26 08:06:25;;;;;;;9.65;6.60;;;;;;;;;;1768366;81;21534;-80
2022/07/26 08:08:52;;;;;;;7.17;5.87;;;;;;;;;;1760407;81;21499;-82
2022/07/26 08:11:19;;;;;;;7.50;6.15;;;;;;;;;;1752719;81;21040;-78
2022/07/26 08:13:46;;;;;;;6.70;6.10;;;;;;;;;;1762656;81;21032;-82
2022/07/26 08:16:13;;;;;;;7.00;6.10;;;;;;;;;;1753597;81;21500;-79
2022/07/26 08:18:40;;;;;;;6.62;6.03;;;;;;;;;;1760352;81;21527;-79
2022/07/26 08:21:08;;;;;;;7.62;6.12;;;;;;;;;;1766942;81;21068;-81
2022/07/26 08:23:35;;;;;;;7.00;6.05;;;;;;;;;;1756303;81;21145;-79
2022/07/26 08:26:02;;;;;;;7.03;5.80;;;;;;;;;;1753207;80;21052;-82
2022/07/26 08:28:29;;;;;;;7.47;6.10;;;;;;;;;;1758332;81;21498;-84
2022/07/26 08:30:56;;;;;;;8.55;5.70;;;;;;;;;;1763131;81;21005;-80
2022/07/26 08:33:25;;;;;;;6.08;5.47;;;;;;;;;;1758878;80;21562;-78
2022/07/26 08:35:52;;;;;;;10.00;5.60;;;;;;;;;;1761830;81;21067;-80
2022/07/26 08:38:19;;;;;;;5.78;5.28;;;;;;;;;;1759689;81;21057;-79
2022/07/26 08:40:46;;;;;;;6.15;5.55;;;;;;;;;;1731986;80;21031;-82
2022/07/26 08:43:13;;;;;;;6.62;6.00;;;;;;;;;;1748306;81;21063;-79
2022/07/26 08:45:40;;;;;;;6.30;5.70;;;;;;;;;;1749799;81;21079;-79
2022/07/26 08:48:07;;;;;;;8.60;6.30;;;;;;;;;;1741804;82;21532;-83
2022/07/26 08:50:35;;;;;;;4.92;4.53;;;;;;;;;;1745992;81;21020;-83
2022/07/26 08:53:07;;;;;;;8.00;4.85;;;;;;;;;;1750594;81;21546;-84
2022/07/26 08:55:32;;;;;;;5.75;5.15;;;;;;;;;;1747340;81;21024;-82
2022/07/26 08:58:01;;;;;;;6.83;5.53;;;;;;;;;;1743644;82;21056;-81
2022/07/26 09:00:29;;;;;;;6.10;5.47;;;;;;;;;;1746738;81;21063;-81
2022/07/26 09:02:58;;;;;;;8.43;5.60;;;;;;;;;;1744944;82;21576;-81
2022/07/26 09:05:32;;;;;;;7.15;6.30;;;;;;;;;;1744473;81;21559;-82
2022/07/26 09:07:59;;;;;;;9.15;5.83;;;;;;;;;;1741760;82;21047;-77
2022/07/26 09:10:27;;;;;;;10.55;6.85;;;;;;;;;;1743930;81;21483;-83
2022/07/26 09:12:56;;;;;;;7.95;5.72;;;;;;;;;;1723733;82;21043;-80
2022/07/26 09:15:26;;;;;;;10.40;6.05;;;;;;;;;;1741231;82;21059;-80
2022/07/26 09:17:55;;;;;;;9.93;5.87;;;;;;;;;;1746078;81;20993;-80
2022/07/26 09:20:26;;;;;;;9.38;5.40;;;;;;;;;;1743275;82;21028;-79
2022/07/26 09:23:01;;;;;;;6.35;4.90;;;;;;;;;;1741769;81;21028;-80
2022/07/26 09:25:38;;;;;;;7.47;5.90;;;;;;;;;;1738190;82;21008;-81
2022/07/26 09:28:25;;;;;;;8.98;5.60;;;;;;;;;;1743892;81;21063;-78
2022/07/26 09:31:03;;;;;;;7.85;4.45;;;;;;;;;;1734916;82;21058;-80
2022/07/26 09:33:48;;;;;;;5.20;3.40;;;;;;;;;;1741334;82;21035;-79
2022/07/26 09:36:16;;;;;;;7.40;3.95;;;;;;;;;;1741588;82;21078;-80
2022/07/26 09:38:47;;;;;;;6.62;3.75;;;;;;;;;;1741242;82;21026;-80
2022/07/26 09:41:18;;;;;;;8.43;3.77;;;;;;;;;;1744726;82;21007;-78
2022/07/26 09:43:46;;;;;;;13.78;5.47;;;;;;;;;;1738307;82;21024;-81
2022/07/26 09:46:14;;;;;;;11.75;4.83;;;;;;;;;;1745793;81;21028;-81
2022/07/26 09:48:42;;;;;;;10.65;4.87;;;;;;;;;;1748886;81;21534;-82
2022/07/26 09:51:10;;;;;;;9.23;4.47;;;;;;;;;;1749478;81;21062;-82
2022/07/26 09:53:43;;;;;;;7.33;4.40;;;;;;;;;;1752696;81;21050;-80
2022/07/26 09:56:11;;;;;;;8.10;4.72;;;;;;;;;;1748571;81;21098;-79
2022/07/26 09:58:38;;;;;;;9.90;4.87;;;;;;;;;;1743316;81;21536;-79
2022/07/26 10:01:06;;;;;;;9.18;4.30;;;;;;;;;;1757475;81;20969;-79
2022/07/26 10:03:34;;;;;;;9.63;4.37;;;;;;;;;;1754396;80;21012;-78
2022/07/26 10:06:03;;;;;;;6.67;4.10;;;;;;;;;;1751879;80;21098;-77
2022/07/26 10:08:30;;;;;;;9.15;4.60;;;;;;;;;;1762873;80;21079;-77
2022/07/26 10:11:04;;;;;;;10.40;3.87;;;;;;;;;;1753069;80;21011;-78
2022/07/26 10:13:31;;;;;;;;;;;;;;;;;;1759592;81;21509;-80
2022/07/26 10:16:00;;;;;;;4.17;3.15;;;;;;;;;;1748142;81;20114;-78
2022/07/26 10:18:39;;;;;;;6.55;3.47;;;;;;;;;;1754884;81;21152;-80
2022/07/26 10:21:18;;;;;;;5.85;3.20;;;;;;;;;;1766791;81;21068;-81
2022/07/26 10:23:47;;;;;;;4.45;3.00;;;;;;;;;;1759755;80;21028;-81
2022/07/26 10:26:35;;;;;;;3.95;3.12;;;;;;;;;;1764608;81;21520;-81
2022/07/26 10:29:20;;;;;;;5.42;3.40;;;;;;;;;;1758014;81;21090;-81
2022/07/26 10:31:48;;;;;;;4.42;3.20;;;;;;;;;;1764829;80;21016;-79
2022/07/26 10:34:36;;;;;;;6.92;3.75;;;;;;;;;;1750312;81;21027;-81
2022/07/26 10:37:09;;;;;;;5.70;3.50;;;;;;;;;;1717239;82;21127;-82
2022/07/26 10:39:37;;;;;;;4.78;3.33;;;;;;;;;;1695006;84;21060;-83
2022/07/26 10:42:06;;;;;;;4.00;3.27;;;;;;;;;;1720642;82;21091;-82
2022/07/26 10:44:38;;;;;;;5.20;3.52;;;;;;;;;;1765181;81;21001;-84
2022/07/26 10:47:14;;;;;;;4.00;3.60;;;;;;;;;;1759592;80;21040;-78
2022/07/26 10:49:55;;;;;;;3.62;3.30;;;;;;;;;;1765395;81;21032;-82
2022/07/26 10:52:25;;;;;;;5.95;4.03;;;;;;;;;;1762360;81;21082;-82
2022/07/26 10:55:02;;;;;;;6.58;4.72;;;;;;;;;;1747265;80;21062;-82
2022/07/26 10:57:40;;;;;;;10.13;6.35;;;;;;;;;;1717197;82;21501;-81
2022/07/26 11:00:17;;;;;;;8.98;5.90;;;;;;;;;;1712768;82;21084;-84
2022/07/26 11:02:51;;;;;;;8.50;6.08;;;;;;;;;;1721338;82;21571;-83
2022/07/26 11:05:20;;;;;;;6.37;4.95;;;;;;;;;;1688581;83;21064;-83
2022/07/26 11:08:09;;;;;;;8.90;6.22;;;;;;;;;;1719957;82;21052;-82
2022/07/26 11:10:43;;;;;;;10.13;6.83;;;;;;;;;;1685027;84;21559;-82
2022/07/26 11:13:17;;;;;;;10.93;8.35;;;;;;;;;;1718319;82;21029;-83
2022/07/26 11:15:50;;;;;;;12.25;8.73;;;;;;;;;;1687316;84;21087;-83
2022/07/26 11:18:23;;;;;;;11.83;6.83;;;;;;;;;;1716506;83;21084;-83
2022/07/26 11:20:54;;;;;;;6.62;5.00;;;;;;;;;;1701386;83;21016;-83
2022/07/26 11:23:26;;;;;;;6.75;4.55;;;;;;;;;;1716446;82;21067;-84
2022/07/26 11:26:02;;;;;;;6.60;4.25;;;;;;;;;;1691763;83;21095;-85
2022/07/26 11:28:30;;;;;;;6.75;4.42;;;;;;;;;;1717086;82;21063;-81
2022/07/26 11:30:57;;;;;;;5.12;4.30;;;;;;;;;;1713426;82;21515;-83
2022/07/26 11:33:39;;;;;;;7.70;4.47;;;;;;;;;;1710998;83;21043;-82
2022/07/26 11:36:08;;;;;;;4.25;3.85;;;;;;;;;;1711189;82;22190;-82
2022/07/26 11:38:52;;;;;;;4.33;3.20;;;;;;;;;;1758397;80;21137;-81
2022/07/26 11:41:23;;;;;;;5.55;3.35;;;;;;;;;;1712722;82;21068;-82
2022/07/26 11:43:50;;;;;;;4.37;3.77;;;;;;;;;;1687370;84;21056;-81
2022/07/26 11:46:18;;;;;;;5.90;3.70;;;;;;;;;;1713937;83;21047;-82
2022/07/26 11:48:51;;;;;;;4.35;3.77;;;;;;;;;;1755448;80;21031;-82
2022/07/26 11:51:20;;;;;;;7.90;3.47;;;;;;;;;;1718369;82;20985;-84
2022/07/26 11:53:47;;;;;;;5.62;3.75;;;;;;;;;;1701262;84;21055;-82
2022/07/26 11:56:22;;;;;;;4.10;3.70;;;;;;;;;;1692421;84;21035;-80
2022/07/26 11:58:51;;;;;;;4.90;3.40;;;;;;;;;;1702134;84;21103;-82
2022/07/26 12:01:19;;;;;;;3.92;3.10;;;;;;;;;;1714279;82;21579;-82
2022/07/26 12:03:50;;;;;;;4.85;3.30;;;;;;;;;;1754957;81;21043;-82
2022/07/26 12:06:18;;;;;;;4.03;3.33;;;;;;;;;;1763601;81;21079;-81
2022/07/26 12:08:54;;;;;;;2.42;2.22;;;;;;;;;;1754808;80;21003;-85
2022/07/26 12:11:24;;;;;;;3.92;2.42;;;;;;;;;;1764467;80;21111;-83
2022/07/26 12:14:00;;;;;;;4.47;2.40;;;;;;;;;;1757355;81;21490;-83
2022/07/26 12:16:43;;;;;;;4.05;2.80;;;;;;;;;;1756816;80;20971;-82
2022/07/26 12:19:17;;;;;;;3.00;2.62;;;;;;;;;;1754485;80;21539;-85
2022/07/26 12:21:46;;;;;;;3.40;3.02;;;;;;;;;;1715617;82;21559;-83
2022/07/26 12:24:33;;;;;;;5.17;3.33;;;;;;;;;;1692316;84;21083;-86
2022/07/26 12:27:16;;;;;;;4.00;3.40;;;;;;;;;;1692748;84;21096;-83
2022/07/26 12:29:47;;;;;;;5.33;2.95;;;;;;;;;;1699660;83;21059;-83
2022/07/26 12:32:19;;;;;;;3.30;3.00;;;;;;;;;;1697993;83;21514;-85
2022/07/26 12:35:01;;;;;;;6.58;3.65;;;;;;;;;;1713727;82;21043;-83
2022/07/26 12:37:30;;;;;;;4.72;3.27;;;;;;;;;;1695141;82;21095;-82
2022/07/26 12:39:59;;;;;;;6.62;3.70;;;;;;;;;;1713947;83;20996;-84
2022/07/26 12:42:31;;;;;;;4.55;3.02;;;;;;;;;;1718995;82;21040;-83
2022/07/26 12:44:59;;;;;;;3.60;3.00;;;;;;;;;;1691185;83;21001;-83
2022/07/26 12:47:26;;;;;;;2.98;2.75;;;;;;;;;;1719995;82;21083;-84
2022/07/26 12:49:57;;;;;;;5.28;3.20;;;;;;;;;;1690841;84;21564;-86
2022/07/26 12:52:24;;;;;;;4.47;3.58;;;;;;;;;;1721693;82;21056;-84
2022/07/26 12:54:52;;;;;;;4.58;3.30;;;;;;;;;;1712988;82;21062;-82
2022/07/26 12:57:20;;;;;;;4.42;3.27;;;;;;;;;;1715339;82;21056;-83
2022/07/26 12:59:48;;;;;;;6.10;3.30;;;;;;;;;;1686736;83;21069;-84
2022/07/26 13:02:17;;;;;;;2.92;2.40;;;;;;;;;;1717590;83;21067;-83
2022/07/26 13:04:45;;;;;;;5.72;2.50;;;;;;;;;;1714994;82;21060;-84
2022/07/26 13:07:13;;;;;;;2.87;2.67;;;;;;;;;;1665766;83;21044;-83
2022/07/26 13:09:39;;;;;;;3.65;3.00;;;;;;;;;;1682870;83;21499;-84
2022/07/26 13:12:09;;;;;;;3.70;2.75;;;;;;;;;;1687864;83;21071;-85
2022/07/26 13:14:38;;;;;;;3.98;3.15;;;;;;;;;;1693641;83;21047;-85
2022/07/26 13:17:07;;;;;;;4.28;3.15;;;;;;;;;;1687725;84;21540;-83
2022/07/26 13:19:36;;;;;;;8.68;4.17;;;;;;;;;;1756784;80;21083;-81
2022/07/26 13:22:04;;;;;;;7.12;4.17;;;;;;;;;;1758969;81;21036;-84
2022/07/26 13:24:32;;;;;;;5.37;4.33;;;;;;;;;;1761899;80;21001;-81
2022/07/26 13:27:07;;;;;;;5.37;4.40;;;;;;;;;;1754169;80;21531;-82
2022/07/26 13:29:34;;;;;;;5.00;4.50;;;;;;;;;;1715098;82;21527;-84
2022/07/26 13:32:02;;;;;;;4.50;4.05;;;;;;;;;;1686480;84;21078;-80
2022/07/26 13:34:29;;;;;;;6.90;4.33;;;;;;;;;;1691845;84;21086;-84
2022/07/26 13:36:56;;;;;;;4.90;4.10;;;;;;;;;;1699816;83;21064;-82
2022/07/26 13:39:24;;;;;;;7.47;4.67;;;;;;;;;;1757460;80;21062;-83
2022/07/26 13:41:51;;;;;;;5.60;4.30;;;;;;;;;;1758390;81;21051;-84
2022/07/26 13:44:18;;;;;;;5.50;4.00;;;;;;;;;;1762827;81;21004;-84
2022/07/26 13:46:45;;;;;;;4.85;3.77;;;;;;;;;;1761791;81;21051;-80
2022/07/26 13:49:12;;;;;;;4.17;3.50;;;;;;;;;;1764229;81;21558;-82
2022/07/26 13:51:58;;;;;;;3.95;3.30;;;;;;;;;;1757311;80;21031;-81
2022/07/26 13:54:30;;;;;;;4.35;3.80;;;;;;;;;;1748493;81;21007;-83
2022/07/26 13:56:59;;;;;;;4.85;3.62;;;;;;;;;;1721172;82;21079;-85
2022/07/26 13:59:26;;;;;;;5.30;4.20;;;;;;;;;;1718873;82;21048;-84
2022/07/26 14:01:53;;;;;;;8.08;4.45;;;;;;;;;;1765771;80;21023;-83
2022/07/26 14:04:21;;;;;;;4.53;4.05;;;;;;;;;;1771775;79;20991;-80
2022/07/26 14:06:48;;;;;;;4.70;3.80;;;;;;;;;;1763535;80;21025;-82
2022/07/26 14:09:16;;;;;;;4.42;4.03;;;;;;;;;;1758239;79;21066;-84
2022/07/26 14:11:44;;;;;;;5.15;4.30;;;;;;;;;;1757429;80;21060;-83
2022/07/26 14:14:11;;;;;;;8.50;4.70;;;;;;;;;;1761240;79;21912;-81
2022/07/26 14:16:39;;;;;;;6.80;4.60;;;;;;;;;;1768275;80;21524;-87
2022/07/26 14:19:06;;;;;;;5.92;5.30;;;;;;;;;;1756677;80;21102;-83
2022/07/26 14:21:34;;;;;;;9.75;5.60;;;;;;;;;;1758368;80;21018;-81
2022/07/26 14:24:01;;;;;;;6.03;5.15;;;;;;;;;;1739749;80;21079;-81
2022/07/26 14:26:28;;;;;;;5.50;4.80;;;;;;;;;;1752990;79;21103;-85
2022/07/26 14:28:55;;;;;;;6.75;4.80;;;;;;;;;;1750554;80;20969;-83
2022/07/26 14:31:22;;;;;;;7.00;4.97;;;;;;;;;;1767035;80;21004;-85
2022/07/26 14:33:49;;;;;;;6.20;5.12;;;;;;;;;;1768341;80;21024;-84
2022/07/26 14:36:16;;;;;;;5.50;5.00;;;;;;;;;;1763321;81;21511;-82
2022/07/26 14:38:44;;;;;;;7.67;5.42;;;;;;;;;;1752014;79;21042;-84
2022/07/26 14:41:11;;;;;;;5.78;5.00;;;;;;;;;;1742542;79;21093;-85
2022/07/26 14:43:41;;;;;;;5.80;4.85;;;;;;;;;;1768289;80;21039;-84
2022/07/26 14:46:08;;;;;;;6.25;5.00;;;;;;;;;;1761147;80;21000;-83
2022/07/26 14:48:35;;;;;;;5.37;4.87;;;;;;;;;;1754083;80;21046;-83
2022/07/26 14:51:03;;;;;;;5.95;4.92;;;;;;;;;;1751533;80;21075;-82
2022/07/26 14:53:30;;;;;;;5.85;5.20;;;;;;;;;;1735156;81;21012;-87
2022/07/26 14:55:57;;;;;;;5.72;5.22;;;;;;;;;;1717995;81;21024;-82
2022/07/26 14:58:24;;;;;;;6.10;5.50;;;;;;;;;;1747370;81;21495;-84
2022/07/26 15:00:51;;;;;;;6.70;5.62;;;;;;;;;;1751613;81;21078;-82
2022/07/26 15:03:18;;;;;;;6.97;5.62;;;;;;;;;;1728948;81;21031;-85
2022/07/26 15:05:46;;;;;;;6.60;5.67;;;;;;;;;;1730694;80;21099;-79
2022/07/26 15:08:13;;;;;;;5.70;5.10;;;;;;;;;;1751907;81;21092;-84
2022/07/26 15:10:40;;;;;;;6.00;4.80;;;;;;;;;;1738506;80;21067;-81
2022/07/26 15:13:07;;;;;;;5.87;5.30;;;;;;;;;;1720760;81;21011;-81
2022/07/26 15:15:35;;;;;;;5.97;5.37;;;;;;;;;;1735905;81;21036;-85
2022/07/26 15:18:01;;;;;;;5.85;5.33;;;;;;;;;;1719392;82;21662;-84
2022/07/26 15:20:28;;;;;;;5.47;4.97;;;;;;;;;;1724316;82;21087;-83
2022/07/26 15:22:55;;;;;;;6.78;5.10;;;;;;;;;;1746693;80;21590;-82
2022/07/26 15:25:23;;;;;;;7.00;5.10;;;;;;;;;;1725517;81;21112;-83
2022/07/26 15:27:51;;;;;;;9.08;5.30;;;;;;;;;;1739939;81;21179;-84
2022/07/26 15:30:20;;;;;;;5.33;4.75;;;;;;;;;;1729773;81;21116;-81
2022/07/26 15:32:48;;;;;;;5.30;4.62;;;;;;;;;;1730129;81;21084;-85
2022/07/26 15:35:15;;;;;;;7.50;5.30;;;;;;;;;;1744636;80;21075;-87
2022/07/26 15:37:42;;;;;;;6.50;5.72;;;;;;;;;;1727416;81;21071;-81
2022/07/26 15:40:11;;;;;;;6.37;4.87;;;;;;;;;;1724835;81;21055;-82
2022/07/26 15:42:40;;;;;;;5.17;4.67;;;;;;;;;;1750566;81;21555;-84
2022/07/26 15:45:09;;;;;;;5.05;4.40;;;;;;;;;;1724448;81;21043;-81
2022/07/26 15:47:38;;;;;;;5.03;4.62;;;;;;;;;;1740837;81;21077;-86
2022/07/26 15:50:06;;;;;;;4.95;4.37;;;;;;;;;;1741632;81;21499;-83
2022/07/26 15:52:36;;;;;;;6.03;4.28;;;;;;;;;;1717503;82;22154;-87
2022/07/26 15:55:04;;;;;;;5.40;3.90;;;;;;;;;;1745431;81;21082;-81
2022/07/26 15:57:32;;;;;;;4.50;4.10;;;;;;;;;;1729073;81;21078;-82
2022/07/26 15:59:58;;;;;;;4.42;4.10;;;;;;;;;;1738161;81;21016;-84
2022/07/26 16:02:26;;;;;;;7.00;4.30;;;;;;;;;;1725145;81;21099;-77
2022/07/26 16:04:52;;;;;;;5.95;4.22;;;;;;;;;;1746052;81;20992;-82
2022/07/26 16:07:20;;;;;;;4.72;4.20;;;;;;;;;;1765155;80;21557;-83
2022/07/26 16:09:47;;;;;;;5.85;4.60;;;;;;;;;;1722299;82;21002;-82
2022/07/26 16:12:14;;;;;;;5.35;4.50;;;;;;;;;;1767056;80;21072;-82
2022/07/26 16:14:42;;;;;;;4.35;3.95;;;;;;;;;;1765188;79;21513;-86
2022/07/26 16:17:09;;;;;;;4.83;4.35;;;;;;;;;;1759613;79;21046;-86
2022/07/26 16:19:36;;;;;;;4.47;4.08;;;;;;;;;;1771511;80;21039;-86
2022/07/26 16:22:03;;;;;;;6.58;4.87;;;;;;;;;;1758077;80;21034;-85
2022/07/26 16:28:11;;;;;;;4.35;3.95;;;;;;;;;;1759975;80;21060;-83
2022/07/26 16:30:40;;;;;;;5.17;4.03;;;;;;;;;;1748446;80;21555;-84
2022/07/26 16:33:07;;;;;;;6.40;4.00;;;;;;;;;;1726275;81;21048;-82
2022/07/26 16:35:34;;;;;;;6.10;3.80;;;;;;;;;;1765300;80;21057;-82
2022/07/26 16:38:02;;;;;;;8.83;3.92;;;;;;;;;;1749514;80;21081;-81
2022/07/26 16:40:29;;;;;;;6.47;3.95;;;;;;;;;;1761622;80;21043;-84
2022/07/26 16:42:56;;;;;;;3.98;3.67;;;;;;;;;;1761229;80;21084;-85
2022/07/26 16:45:23;;;;;;;6.62;4.00;;;;;;;;;;1745418;80;21314;-83
2022/07/26 16:47:50;;;;;;;4.53;4.12;;;;;;;;;;1757271;80;21008;-84
2022/07/26 16:50:16;;;;;;;4.33;3.92;;;;;;;;;;1755056;80;21034;-83
2022/07/26 16:52:43;;;;;;;4.50;4.00;;;;;;;;;;1756269;80;21525;-82
2022/07/26 16:55:10;;;;;;;5.70;4.25;;;;;;;;;;1754859;79;21053;-82
2022/07/26 16:57:37;;;;;;;5.30;4.00;;;;;;;;;;1752722;79;21502;-82
2022/07/26 17:00:07;;;;;;;4.50;4.10;;;;;;;;;;1762370;80;21028;-84
2022/07/26 17:02:35;;;;;;;5.05;4.50;;;;;;;;;;1749364;79;21053;-82
2022/07/26 17:05:02;;;;;;;5.78;4.58;;;;;;;;;;1768748;80;21059;-84
2022/07/26 17:07:30;;;;;;;5.47;4.25;;;;;;;;;;1773932;81;20992;-81
2022/07/26 17:09:57;;;;;;;8.60;4.40;;;;;;;;;;1773922;80;21032;-82
2022/07/26 17:12:25;;;;;;;6.40;4.50;;;;;;;;;;1773975;81;21004;-83
2022/07/26 17:14:52;;;;;;;8.68;4.53;;;;;;;;;;1762423;80;21517;-83
2022/07/26 17:17:19;;;;;;;5.83;4.53;;;;;;;;;;1767767;80;21069;-82
2022/07/26 17:19:48;;;;;;;6.10;4.85;;;;;;;;;;1755414;80;21065;-82
2022/07/26 17:22:15;;;;;;;7.97;5.17;;;;;;;;;;1749119;80;21041;-82
2022/07/26 17:24:42;;;;;;;7.20;5.47;;;;;;;;;;1750464;80;21072;-82
2022/07/26 17:27:10;;;;;;;8.95;5.20;;;;;;;;;;1727691;79;21006;-81
2022/07/26 17:29:37;;;;;;;6.37;4.80;;;;;;;;;;1764914;80;21063;-81
2022/07/26 17:32:06;;;;;;;7.05;4.83;;;;;;;;;;1756824;80;21062;-80
2022/07/26 17:34:33;;;;;;;5.17;4.67;;;;;;;;;;1748684;80;21053;-81
2022/07/26 17:37:01;;;;;;;5.15;4.65;;;;;;;;;;1748622;80;21044;-82
2022/07/26 17:39:29;;;;;;;7.70;5.37;;;;;;;;;;1771745;80;21059;-81
2022/07/26 17:41:55;;;;;;;7.17;5.22;;;;;;;;;;1764889;80;21028;-81
2022/07/26 17:44:22;;;;;;;7.45;4.85;;;;;;;;;;1764215;80;21009;-81
2022/07/26 17:46:52;;;;;;;8.85;6.75;;;;;;;;;;1761856;80;21524;-83
2022/07/26 17:49:19;;;;;;;11.18;7.20;;;;;;;;;;1762702;80;21017;-81
2022/07/26 17:51:45;;;;;;;9.58;5.78;;;;;;;;;;1761519;80;20989;-80
2022/07/26 17:54:12;;;;;;;9.33;6.55;;;;;;;;;;1760794;80;21120;-81
2022/07/26 17:56:39;;;;;;;7.20;6.35;;;;;;;;;;1748913;80;21008;-82
2022/07/26 17:59:07;;;;;;;9.55;7.53;;;;;;;;;;1751361;80;21018;-81
2022/07/26 18:01:34;;;;;;;12.20;8.60;;;;;;;;;;1769306;79;21147;-84
2022/07/26 18:04:01;;;;;;;10.43;7.20;;;;;;;;;;1770688;80;21524;-82
2022/07/26 18:06:27;;;;;;;8.38;6.05;;;;;;;;;;1744422;79;21041;-81
2022/07/26 18:08:54;;;;;;;7.83;6.10;;;;;;;;;;1749032;80;20998;-81
2022/07/26 18:11:22;;;;;;;9.75;6.17;;;;;;;;;;1761920;80;21079;-82
2022/07/26 18:13:50;;;;;;;11.70;6.55;;;;;;;;;;1750773;79;21101;-82
2022/07/26 18:16:18;;;;;;;8.75;6.28;;;;;;;;;;1765358;80;21568;-81
2022/07/26 18:18:45;;;;;;;10.78;6.17;;;;;;;;;;1751699;80;21086;-82
2022/07/26 18:21:12;;;;;;;10.15;5.92;;;;;;;;;;1765584;80;21036;-82
2022/07/26 18:23:39;;;;;;;7.85;5.50;;;;;;;;;;1773814;80;21188;-82
2022/07/26 18:26:06;;;;;;;9.35;5.72;;;;;;;;;;1766914;80;21045;-81
2022/07/26 18:28:35;;;;;;;7.80;5.92;;;;;;;;;;1754490;80;21559;-81
2022/07/26 18:31:01;;;;;;;8.50;5.60;;;;;;;;;;1753426;80;21594;-81
2022/07/26 18:33:30;;;;;;;7.08;5.58;;;;;;;;;;1759086;80;21034;-82
2022/07/26 18:35:59;;;;;;;9.23;6.12;;;;;;;;;;1749489;80;21052;-81
2022/07/26 18:38:26;;;;;;;8.18;5.87;;;;;;;;;;1737666;80;21578;-81
2022/07/26 18:40:55;;;;;;;11.80;7.08;;;;;;;;;;1765124;80;21120;-81
2022/07/26 18:43:23;;;;;;;11.38;7.53;;;;;;;;;;1761328;80;21543;-82
2022/07/26 18:45:50;;;;;;;10.55;7.33;;;;;;;;;;1776475;80;21548;-81
2022/07/26 18:48:19;;;;;;;11.65;8.95;;;;;;;;;;1753328;79;21094;-81
2022/07/26 18:50:45;;;;;;;11.75;8.65;;;;;;;;;;1759017;80;21048;-81
2022/07/26 18:53:12;;;;;;;10.00;7.92;;;;;;;;;;1770891;80;21520;-81
2022/07/26 18:55:39;;;;;;;13.15;8.80;;;;;;;;;;1765507;79;21086;-81
2022/07/26 18:58:06;;;;;;;11.22;8.18;;;;;;;;;;1773646;79;21071;-81
2022/07/26 19:00:33;;;;;;;11.65;8.05;;;;;;;;;;1775440;80;21094;-81
2022/07/26 19:03:00;;;;;;;13.65;9.03;;;;;;;;;;1761422;80;21021;-79
2022/07/26 19:05:27;;;;;;;12.75;9.30;;;;;;;;;;1752614;80;21049;-80
2022/07/26 19:07:54;;;;;;;14.28;9.48;;;;;;;;;;1744189;79;21030;-78
2022/07/26 19:10:21;;;;;;;12.07;8.13;;;;;;;;;;1744598;80;21029;-80
2022/07/26 19:12:50;;;;;;;8.38;7.40;;;;;;;;;;1769356;80;21103;-80
2022/07/26 19:15:18;;;;;;;12.53;7.80;;;;;;;;;;1774888;81;21551;-80
2022/07/26 19:17:45;;;;;;;13.15;7.22;;;;;;;;;;1775715;80;21028;-80
2022/07/26 19:20:13;;;;;;;9.83;7.10;;;;;;;;;;1744920;80;21532;-79